KPWK/PWK METAR and TAF weather

Enter ICAO airport designator
Station Type Date Time Source
KPWK METAR 2022/08/12 13:52 UTC NOAA

KPWK 121352Z 07006KT 10SM CLR 22/16 A3025 RMK AO2 SLP241 T02220156


Station Type Date Time Source
KPWK Decoded METAR 2022/08/12 13:52 UTC NOAA

CHICAGO EXECUTIVE AIRPORT, IL, United States (KPWK) 42-07N 087-54W 203M
Aug 12, 2022 - 09:52 AM EDT / 2022.08.12 1352 UTC
Wind: from the ENE (070 degrees) at 7 MPH (6 KT):0
Visibility: 10 mile(s):0
Sky conditions: clear
Temperature: 72.0 F (22.2 C)
Dew Point: 60.1 F (15.6 C)
Relative Humidity: 66%
Pressure (altimeter): 30.25 in. Hg (1024 hPa)
ob: KPWK 121352Z 07006KT 10SM CLR 22/16 A3025 RMK AO2 SLP241 T02220156
cycle: 14

Station Type Date Time Source
KPWK TAF UTC NOAA

Error!

Example: see airport list